sensor_id;sensor_type;location;lat;lon;timestamp;P1;durP1;ratioP1;P2;durP2;ratioP2
47539;SDS011;33280;52.152;21.052;2022-11-13T00:00:55;75.90;;;31.73;;
47539;SDS011;33280;52.152;21.052;2022-11-13T00:03:22;76.33;;;32.23;;
47539;SDS011;33280;52.152;21.052;2022-11-13T00:05:58;74.87;;;32.93;;
47539;SDS011;33280;52.152;21.052;2022-11-13T00:08:26;73.03;;;31.67;;
47539;SDS011;33280;52.152;21.052;2022-11-13T00:11:03;71.10;;;30.97;;
47539;SDS011;33280;52.152;21.052;2022-11-13T00:13:35;73.87;;;30.73;;
47539;SDS011;33280;52.152;21.052;2022-11-13T00:16:03;68.90;;;30.37;;
47539;SDS011;33280;52.152;21.052;2022-11-13T00:18:35;68.90;;;29.60;;
47539;SDS011;33280;52.152;21.052;2022-11-13T00:21:07;62.93;;;28.83;;
47539;SDS011;33280;52.152;21.052;2022-11-13T00:23:38;71.80;;;30.50;;
47539;SDS011;33280;52.152;21.052;2022-11-13T00:26:06;73.17;;;30.50;;
47539;SDS011;33280;52.152;21.052;2022-11-13T00:28:36;68.87;;;29.97;;
47539;SDS011;33280;52.152;21.052;2022-11-13T00:31:04;70.53;;;29.50;;
47539;SDS011;33280;52.152;21.052;2022-11-13T00:33:32;76.73;;;31.27;;
47539;SDS011;33280;52.152;21.052;2022-11-13T00:36:23;64.57;;;29.50;;
47539;SDS011;33280;52.152;21.052;2022-11-13T00:38:52;67.27;;;28.33;;
47539;SDS011;33280;52.152;21.052;2022-11-13T00:41:29;64.73;;;27.73;;
47539;SDS011;33280;52.152;21.052;2022-11-13T00:44:00;70.07;;;30.30;;
47539;SDS011;33280;52.152;21.052;2022-11-13T00:46:29;65.33;;;28.07;;
47539;SDS011;33280;52.152;21.052;2022-11-13T00:48:56;60.97;;;26.80;;
47539;SDS011;33280;52.152;21.052;2022-11-13T00:51:23;62.17;;;28.27;;
47539;SDS011;33280;52.152;21.052;2022-11-13T00:53:50;65.10;;;29.00;;
47539;SDS011;33280;52.152;21.052;2022-11-13T00:56:17;63.93;;;27.70;;
47539;SDS011;33280;52.152;21.052;2022-11-13T00:58:44;64.17;;;28.90;;
47539;SDS011;33280;52.152;21.052;2022-11-13T01:01:12;65.57;;;29.13;;
47539;SDS011;33280;52.152;21.052;2022-11-13T01:03:41;65.37;;;29.13;;
47539;SDS011;33280;52.152;21.052;2022-11-13T01:06:13;68.33;;;29.20;;
47539;SDS011;33280;52.152;21.052;2022-11-13T01:08:40;71.20;;;29.60;;
47539;SDS011;33280;52.152;21.052;2022-11-13T01:11:08;70.33;;;29.50;;
47539;SDS011;33280;52.152;21.052;2022-11-13T01:13:38;66.40;;;28.67;;
47539;SDS011;33280;52.152;21.052;2022-11-13T01:16:07;73.47;;;29.77;;
47539;SDS011;33280;52.152;21.052;2022-11-13T01:18:36;66.67;;;28.60;;
47539;SDS011;33280;52.152;21.052;2022-11-13T01:23:31;68.90;;;28.73;;
47539;SDS011;33280;52.152;21.052;2022-11-13T01:26:10;66.07;;;28.00;;
47539;SDS011;33280;52.152;21.052;2022-11-13T01:28:42;68.90;;;27.93;;
47539;SDS011;33280;52.152;21.052;2022-11-13T01:31:19;60.67;;;26.57;;
47539;SDS011;33280;52.152;21.052;2022-11-13T01:33:49;67.47;;;28.37;;
47539;SDS011;33280;52.152;21.052;2022-11-13T01:36:20;65.00;;;27.40;;
47539;SDS011;33280;52.152;21.052;2022-11-13T01:38:50;68.20;;;28.17;;
47539;SDS011;33280;52.152;21.052;2022-11-13T01:41:23;66.53;;;27.97;;
47539;SDS011;33280;52.152;21.052;2022-11-13T01:43:52;66.80;;;26.37;;
47539;SDS011;33280;52.152;21.052;2022-11-13T01:51:38;63.33;;;27.70;;
47539;SDS011;33280;52.152;21.052;2022-11-13T01:54:09;66.70;;;27.47;;
47539;SDS011;33280;52.152;21.052;2022-11-13T01:56:43;66.17;;;27.50;;
47539;SDS011;33280;52.152;21.052;2022-11-13T01:59:14;67.17;;;27.63;;
47539;SDS011;33280;52.152;21.052;2022-11-13T02:01:43;68.23;;;27.00;;
47539;SDS011;33280;52.152;21.052;2022-11-13T02:04:10;66.27;;;27.00;;
47539;SDS011;33280;52.152;21.052;2022-11-13T02:06:54;64.70;;;27.23;;
47539;SDS011;33280;52.152;21.052;2022-11-13T02:09:26;65.83;;;27.43;;
47539;SDS011;33280;52.152;21.052;2022-11-13T02:11:56;64.33;;;26.20;;
47539;SDS011;33280;52.152;21.052;2022-11-13T02:14:25;62.97;;;25.83;;
47539;SDS011;33280;52.152;21.052;2022-11-13T02:17:02;64.43;;;26.50;;
47539;SDS011;33280;52.152;21.052;2022-11-13T02:19:32;64.77;;;26.53;;
47539;SDS011;33280;52.152;21.052;2022-11-13T02:24:53;61.87;;;25.50;;
47539;SDS011;33280;52.152;21.052;2022-11-13T02:27:29;67.23;;;26.23;;
47539;SDS011;33280;52.152;21.052;2022-11-13T02:30:37;62.47;;;25.63;;
47539;SDS011;33280;52.152;21.052;2022-11-13T02:32:59;66.33;;;26.87;;
47539;SDS011;33280;52.152;21.052;2022-11-13T02:35:31;72.10;;;26.60;;
47539;SDS011;33280;52.152;21.052;2022-11-13T02:38:03;65.67;;;26.07;;
47539;SDS011;33280;52.152;21.052;2022-11-13T02:40:31;65.83;;;26.17;;
47539;SDS011;33280;52.152;21.052;2022-11-13T02:42:59;68.67;;;26.00;;
47539;SDS011;33280;52.152;21.052;2022-11-13T02:45:26;68.23;;;26.33;;
47539;SDS011;33280;52.152;21.052;2022-11-13T02:47:53;67.43;;;25.93;;
47539;SDS011;33280;52.152;21.052;2022-11-13T02:50:20;71.43;;;25.97;;
47539;SDS011;33280;52.152;21.052;2022-11-13T02:52:46;64.40;;;25.97;;
47539;SDS011;33280;52.152;21.052;2022-11-13T02:55:13;69.60;;;27.10;;
47539;SDS011;33280;52.152;21.052;2022-11-13T02:57:40;68.47;;;26.50;;
47539;SDS011;33280;52.152;21.052;2022-11-13T03:00:07;69.30;;;26.50;;
47539;SDS011;33280;52.152;21.052;2022-11-13T03:02:39;81.90;;;26.77;;
47539;SDS011;33280;52.152;21.052;2022-11-13T03:05:06;64.63;;;25.20;;
47539;SDS011;33280;52.152;21.052;2022-11-13T03:07:39;67.73;;;25.73;;
47539;SDS011;33280;52.152;21.052;2022-11-13T03:10:07;65.33;;;25.53;;
47539;SDS011;33280;52.152;21.052;2022-11-13T03:12:34;63.43;;;25.43;;
47539;SDS011;33280;52.152;21.052;2022-11-13T03:15:02;65.00;;;25.77;;
47539;SDS011;33280;52.152;21.052;2022-11-13T03:17:30;64.60;;;24.93;;
47539;SDS011;33280;52.152;21.052;2022-11-13T03:19:57;65.57;;;24.87;;
47539;SDS011;33280;52.152;21.052;2022-11-13T03:22:25;63.10;;;25.10;;
47539;SDS011;33280;52.152;21.052;2022-11-13T03:24:52;73.80;;;26.87;;
47539;SDS011;33280;52.152;21.052;2022-11-13T03:27:21;72.23;;;26.10;;
47539;SDS011;33280;52.152;21.052;2022-11-13T03:29:48;61.87;;;24.20;;
47539;SDS011;33280;52.152;21.052;2022-11-13T03:32:14;73.30;;;25.13;;
47539;SDS011;33280;52.152;21.052;2022-11-13T03:34:41;65.13;;;24.63;;
47539;SDS011;33280;52.152;21.052;2022-11-13T03:37:08;68.20;;;25.10;;
47539;SDS011;33280;52.152;21.052;2022-11-13T03:39:35;63.83;;;24.90;;
47539;SDS011;33280;52.152;21.052;2022-11-13T03:42:02;64.10;;;23.73;;
47539;SDS011;33280;52.152;21.052;2022-11-13T03:44:29;62.70;;;22.80;;
47539;SDS011;33280;52.152;21.052;2022-11-13T03:46:55;60.87;;;23.20;;
47539;SDS011;33280;52.152;21.052;2022-11-13T03:49:23;61.67;;;24.97;;
47539;SDS011;33280;52.152;21.052;2022-11-13T03:51:50;58.67;;;22.23;;
47539;SDS011;33280;52.152;21.052;2022-11-13T03:54:17;61.73;;;23.70;;
47539;SDS011;33280;52.152;21.052;2022-11-13T03:56:43;67.53;;;24.70;;
47539;SDS011;33280;52.152;21.052;2022-11-13T03:59:10;60.00;;;22.43;;
47539;SDS011;33280;52.152;21.052;2022-11-13T04:01:37;59.27;;;22.27;;
47539;SDS011;33280;52.152;21.052;2022-11-13T04:04:04;59.53;;;21.93;;
47539;SDS011;33280;52.152;21.052;2022-11-13T04:06:31;60.03;;;23.23;;
47539;SDS011;33280;52.152;21.052;2022-11-13T04:08:57;63.30;;;23.00;;
47539;SDS011;33280;52.152;21.052;2022-11-13T04:11:24;61.70;;;23.27;;
47539;SDS011;33280;52.152;21.052;2022-11-13T04:13:51;63.40;;;23.13;;
47539;SDS011;33280;52.152;21.052;2022-11-13T04:16:18;55.20;;;22.90;;
47539;SDS011;33280;52.152;21.052;2022-11-13T04:18:45;58.00;;;22.73;;
47539;SDS011;33280;52.152;21.052;2022-11-13T04:21:12;54.07;;;21.20;;
47539;SDS011;33280;52.152;21.052;2022-11-13T04:23:38;64.03;;;23.00;;
47539;SDS011;33280;52.152;21.052;2022-11-13T04:26:05;60.87;;;23.43;;
47539;SDS011;33280;52.152;21.052;2022-11-13T04:28:32;59.83;;;22.33;;
47539;SDS011;33280;52.152;21.052;2022-11-13T04:30:59;68.13;;;23.73;;
47539;SDS011;33280;52.152;21.052;2022-11-13T04:33:26;55.10;;;21.67;;
47539;SDS011;33280;52.152;21.052;2022-11-13T04:35:53;66.73;;;23.23;;
47539;SDS011;33280;52.152;21.052;2022-11-13T04:38:19;65.73;;;23.40;;
47539;SDS011;33280;52.152;21.052;2022-11-13T04:40:50;66.70;;;23.53;;
47539;SDS011;33280;52.152;21.052;2022-11-13T04:43:37;64.33;;;22.63;;
47539;SDS011;33280;52.152;21.052;2022-11-13T04:46:04;63.10;;;23.13;;
47539;SDS011;33280;52.152;21.052;2022-11-13T04:48:31;70.03;;;24.73;;
47539;SDS011;33280;52.152;21.052;2022-11-13T04:50:58;66.20;;;23.70;;
47539;SDS011;33280;52.152;21.052;2022-11-13T04:53:25;62.40;;;23.37;;
47539;SDS011;33280;52.152;21.052;2022-11-13T04:55:52;61.27;;;22.53;;
47539;SDS011;33280;52.152;21.052;2022-11-13T04:58:19;70.80;;;24.80;;
47539;SDS011;33280;52.152;21.052;2022-11-13T05:00:46;65.10;;;22.67;;
47539;SDS011;33280;52.152;21.052;2022-11-13T05:03:12;61.07;;;22.80;;
47539;SDS011;33280;52.152;21.052;2022-11-13T05:05:39;61.60;;;23.10;;
47539;SDS011;33280;52.152;21.052;2022-11-13T05:08:06;69.43;;;23.80;;
47539;SDS011;33280;52.152;21.052;2022-11-13T05:10:33;63.43;;;23.67;;
47539;SDS011;33280;52.152;21.052;2022-11-13T05:13:00;65.83;;;23.03;;
47539;SDS011;33280;52.152;21.052;2022-11-13T05:15:26;63.73;;;22.33;;
47539;SDS011;33280;52.152;21.052;2022-11-13T05:17:53;64.23;;;23.00;;
47539;SDS011;33280;52.152;21.052;2022-11-13T05:20:21;64.33;;;22.43;;
47539;SDS011;33280;52.152;21.052;2022-11-13T05:22:49;64.83;;;23.70;;
47539;SDS011;33280;52.152;21.052;2022-11-13T05:25:16;64.57;;;23.10;;
47539;SDS011;33280;52.152;21.052;2022-11-13T05:27:43;64.00;;;23.23;;
47539;SDS011;33280;52.152;21.052;2022-11-13T05:30:09;64.20;;;23.03;;
47539;SDS011;33280;52.152;21.052;2022-11-13T05:32:36;60.77;;;22.23;;
47539;SDS011;33280;52.152;21.052;2022-11-13T05:35:03;59.40;;;21.93;;
47539;SDS011;33280;52.152;21.052;2022-11-13T05:37:30;66.33;;;23.60;;
47539;SDS011;33280;52.152;21.052;2022-11-13T05:39:57;60.57;;;22.93;;
47539;SDS011;33280;52.152;21.052;2022-11-13T05:42:24;59.23;;;21.77;;
47539;SDS011;33280;52.152;21.052;2022-11-13T05:44:51;58.20;;;22.30;;
47539;SDS011;33280;52.152;21.052;2022-11-13T05:47:17;60.37;;;21.67;;
47539;SDS011;33280;52.152;21.052;2022-11-13T05:49:44;69.67;;;23.93;;
47539;SDS011;33280;52.152;21.052;2022-11-13T05:52:11;61.13;;;22.93;;
47539;SDS011;33280;52.152;21.052;2022-11-13T05:54:38;60.70;;;22.93;;
47539;SDS011;33280;52.152;21.052;2022-11-13T05:57:05;56.47;;;22.67;;
47539;SDS011;33280;52.152;21.052;2022-11-13T05:59:32;63.97;;;22.23;;
47539;SDS011;33280;52.152;21.052;2022-11-13T06:01:58;58.90;;;21.80;;
47539;SDS011;33280;52.152;21.052;2022-11-13T06:04:25;60.37;;;22.03;;
47539;SDS011;33280;52.152;21.052;2022-11-13T06:06:52;62.13;;;22.80;;
47539;SDS011;33280;52.152;21.052;2022-11-13T06:09:19;58.10;;;21.87;;
47539;SDS011;33280;52.152;21.052;2022-11-13T06:11:46;56.30;;;21.77;;
47539;SDS011;33280;52.152;21.052;2022-11-13T06:14:13;63.30;;;23.90;;
47539;SDS011;33280;52.152;21.052;2022-11-13T06:16:40;55.40;;;22.47;;
47539;SDS011;33280;52.152;21.052;2022-11-13T06:19:08;57.37;;;21.87;;
47539;SDS011;33280;52.152;21.052;2022-11-13T06:21:37;60.50;;;21.87;;
47539;SDS011;33280;52.152;21.052;2022-11-13T06:24:05;52.20;;;19.47;;
47539;SDS011;33280;52.152;21.052;2022-11-13T06:26:33;49.63;;;19.03;;
47539;SDS011;33280;52.152;21.052;2022-11-13T06:29:02;51.17;;;19.20;;
47539;SDS011;33280;52.152;21.052;2022-11-13T06:31:31;50.10;;;19.13;;
47539;SDS011;33280;52.152;21.052;2022-11-13T06:34:00;48.27;;;17.93;;
47539;SDS011;33280;52.152;21.052;2022-11-13T06:36:28;49.60;;;18.20;;
47539;SDS011;33280;52.152;21.052;2022-11-13T06:38:57;51.90;;;18.83;;
47539;SDS011;33280;52.152;21.052;2022-11-13T06:41:26;44.07;;;17.30;;
47539;SDS011;33280;52.152;21.052;2022-11-13T06:43:58;41.87;;;16.60;;
47539;SDS011;33280;52.152;21.052;2022-11-13T06:46:28;43.93;;;16.67;;
47539;SDS011;33280;52.152;21.052;2022-11-13T06:48:56;46.30;;;17.40;;
47539;SDS011;33280;52.152;21.052;2022-11-13T06:51:25;38.37;;;15.83;;
47539;SDS011;33280;52.152;21.052;2022-11-13T06:53:54;43.50;;;15.67;;
47539;SDS011;33280;52.152;21.052;2022-11-13T06:56:22;41.90;;;16.60;;
47539;SDS011;33280;52.152;21.052;2022-11-13T06:58:49;44.97;;;17.40;;
47539;SDS011;33280;52.152;21.052;2022-11-13T07:01:17;39.30;;;15.83;;
47539;SDS011;33280;52.152;21.052;2022-11-13T07:03:45;44.80;;;17.33;;
47539;SDS011;33280;52.152;21.052;2022-11-13T07:06:14;40.57;;;16.90;;
47539;SDS011;33280;52.152;21.052;2022-11-13T07:08:44;44.20;;;17.20;;
47539;SDS011;33280;52.152;21.052;2022-11-13T07:11:17;37.00;;;15.27;;
47539;SDS011;33280;52.152;21.052;2022-11-13T07:13:46;35.13;;;15.07;;
47539;SDS011;33280;52.152;21.052;2022-11-13T07:16:14;41.07;;;15.47;;
47539;SDS011;33280;52.152;21.052;2022-11-13T07:18:52;37.97;;;14.83;;
47539;SDS011;33280;52.152;21.052;2022-11-13T07:21:20;38.83;;;14.80;;
47539;SDS011;33280;52.152;21.052;2022-11-13T07:23:47;38.17;;;13.93;;
47539;SDS011;33280;52.152;21.052;2022-11-13T07:26:15;35.33;;;13.67;;
47539;SDS011;33280;52.152;21.052;2022-11-13T07:28:42;32.03;;;13.17;;
47539;SDS011;33280;52.152;21.052;2022-11-13T07:31:10;35.17;;;12.47;;
47539;SDS011;33280;52.152;21.052;2022-11-13T07:33:38;30.30;;;12.23;;
47539;SDS011;33280;52.152;21.052;2022-11-13T07:36:05;28.43;;;10.90;;
47539;SDS011;33280;52.152;21.052;2022-11-13T07:38:33;22.40;;;9.47;;
47539;SDS011;33280;52.152;21.052;2022-11-13T07:41:00;24.73;;;10.30;;
47539;SDS011;33280;52.152;21.052;2022-11-13T07:43:27;23.13;;;9.63;;
47539;SDS011;33280;52.152;21.052;2022-11-13T07:45:56;26.27;;;10.03;;
47539;SDS011;33280;52.152;21.052;2022-11-13T07:48:24;24.17;;;9.00;;
47539;SDS011;33280;52.152;21.052;2022-11-13T07:50:53;24.93;;;9.77;;
47539;SDS011;33280;52.152;21.052;2022-11-13T07:53:22;20.93;;;8.93;;
47539;SDS011;33280;52.152;21.052;2022-11-13T07:55:58;22.83;;;8.77;;
47539;SDS011;33280;52.152;21.052;2022-11-13T07:58:34;20.17;;;9.10;;
47539;SDS011;33280;52.152;21.052;2022-11-13T08:01:02;22.33;;;8.77;;
47539;SDS011;33280;52.152;21.052;2022-11-13T08:03:31;23.87;;;8.47;;
47539;SDS011;33280;52.152;21.052;2022-11-13T08:06:01;24.50;;;9.57;;
47539;SDS011;33280;52.152;21.052;2022-11-13T08:08:30;17.93;;;7.53;;
47539;SDS011;33280;52.152;21.052;2022-11-13T08:10:57;18.80;;;7.93;;
47539;SDS011;33280;52.152;21.052;2022-11-13T08:13:28;19.70;;;8.30;;
47539;SDS011;33280;52.152;21.052;2022-11-13T08:15:57;17.47;;;7.57;;
47539;SDS011;33280;52.152;21.052;2022-11-13T08:18:26;17.47;;;7.73;;
47539;SDS011;33280;52.152;21.052;2022-11-13T08:20:54;17.77;;;8.37;;
47539;SDS011;33280;52.152;21.052;2022-11-13T08:23:22;27.47;;;8.80;;
47539;SDS011;33280;52.152;21.052;2022-11-13T08:25:49;23.03;;;8.60;;
47539;SDS011;33280;52.152;21.052;2022-11-13T08:28:16;19.57;;;7.83;;
47539;SDS011;33280;52.152;21.052;2022-11-13T08:30:43;18.17;;;8.07;;
47539;SDS011;33280;52.152;21.052;2022-11-13T08:33:11;22.90;;;8.70;;
47539;SDS011;33280;52.152;21.052;2022-11-13T08:35:38;24.60;;;8.37;;
47539;SDS011;33280;52.152;21.052;2022-11-13T08:38:06;20.50;;;8.53;;
47539;SDS011;33280;52.152;21.052;2022-11-13T08:40:35;18.83;;;8.10;;
47539;SDS011;33280;52.152;21.052;2022-11-13T08:43:02;20.00;;;8.83;;
47539;SDS011;33280;52.152;21.052;2022-11-13T08:45:30;18.83;;;7.80;;
47539;SDS011;33280;52.152;21.052;2022-11-13T08:48:00;17.50;;;8.03;;
47539;SDS011;33280;52.152;21.052;2022-11-13T08:50:29;25.03;;;8.67;;
47539;SDS011;33280;52.152;21.052;2022-11-13T08:52:57;19.10;;;8.70;;
47539;SDS011;33280;52.152;21.052;2022-11-13T08:55:24;25.13;;;9.00;;
47539;SDS011;33280;52.152;21.052;2022-11-13T08:57:52;21.23;;;9.03;;
47539;SDS011;33280;52.152;21.052;2022-11-13T09:00:19;23.67;;;9.87;;
47539;SDS011;33280;52.152;21.052;2022-11-13T09:02:46;26.10;;;10.23;;
47539;SDS011;33280;52.152;21.052;2022-11-13T09:05:13;26.37;;;10.30;;
47539;SDS011;33280;52.152;21.052;2022-11-13T09:07:40;25.63;;;11.23;;
47539;SDS011;33280;52.152;21.052;2022-11-13T09:10:07;29.60;;;11.70;;
47539;SDS011;33280;52.152;21.052;2022-11-13T09:12:34;30.07;;;12.23;;
47539;SDS011;33280;52.152;21.052;2022-11-13T09:15:01;29.27;;;11.90;;
47539;SDS011;33280;52.152;21.052;2022-11-13T09:17:28;29.13;;;11.13;;
47539;SDS011;33280;52.152;21.052;2022-11-13T09:19:55;28.37;;;12.20;;
47539;SDS011;33280;52.152;21.052;2022-11-13T09:22:29;31.57;;;12.27;;
47539;SDS011;33280;52.152;21.052;2022-11-13T09:24:56;30.73;;;12.20;;
47539;SDS011;33280;52.152;21.052;2022-11-13T09:27:23;29.30;;;12.40;;
47539;SDS011;33280;52.152;21.052;2022-11-13T09:29:50;32.87;;;13.03;;
47539;SDS011;33280;52.152;21.052;2022-11-13T09:32:21;33.20;;;12.43;;
47539;SDS011;33280;52.152;21.052;2022-11-13T09:34:48;25.93;;;11.80;;
47539;SDS011;33280;52.152;21.052;2022-11-13T09:37:15;27.03;;;11.13;;
47539;SDS011;33280;52.152;21.052;2022-11-13T09:39:42;23.80;;;9.93;;
47539;SDS011;33280;52.152;21.052;2022-11-13T09:42:19;24.60;;;10.37;;
47539;SDS011;33280;52.152;21.052;2022-11-13T09:44:52;28.03;;;10.23;;
47539;SDS011;33280;52.152;21.052;2022-11-13T09:47:37;21.00;;;9.33;;
47539;SDS011;33280;52.152;21.052;2022-11-13T09:50:21;21.27;;;9.07;;
47539;SDS011;33280;52.152;21.052;2022-11-13T09:52:52;17.27;;;8.20;;
47539;SDS011;33280;52.152;21.052;2022-11-13T09:55:21;21.80;;;9.03;;
47539;SDS011;33280;52.152;21.052;2022-11-13T10:00:48;19.47;;;8.73;;
47539;SDS011;33280;52.152;21.052;2022-11-13T10:06:18;20.90;;;9.07;;
47539;SDS011;33280;52.152;21.052;2022-11-13T10:08:56;24.33;;;9.67;;
47539;SDS011;33280;52.152;21.052;2022-11-13T10:11:35;17.43;;;8.17;;
47539;SDS011;33280;52.152;21.052;2022-11-13T10:14:08;19.87;;;8.67;;
47539;SDS011;33280;52.152;21.052;2022-11-13T10:16:53;20.60;;;8.97;;
47539;SDS011;33280;52.152;21.052;2022-11-13T10:25:10;21.33;;;8.73;;
47539;SDS011;33280;52.152;21.052;2022-11-13T10:27:48;18.00;;;8.70;;
47539;SDS011;33280;52.152;21.052;2022-11-13T10:33:47;18.93;;;8.83;;
47539;SDS011;33280;52.152;21.052;2022-11-13T10:36:19;29.10;;;9.57;;
47539;SDS011;33280;52.152;21.052;2022-11-13T10:39:00;22.27;;;9.27;;
47539;SDS011;33280;52.152;21.052;2022-11-13T10:42:17;22.30;;;9.67;;
47539;SDS011;33280;52.152;21.052;2022-11-13T10:44:31;18.77;;;9.03;;
47539;SDS011;33280;52.152;21.052;2022-11-13T10:49:40;19.53;;;9.57;;
47539;SDS011;33280;52.152;21.052;2022-11-13T10:52:16;20.57;;;10.20;;
47539;SDS011;33280;52.152;21.052;2022-11-13T10:54:48;20.57;;;9.93;;
47539;SDS011;33280;52.152;21.052;2022-11-13T10:57:27;20.23;;;9.10;;
47539;SDS011;33280;52.152;21.052;2022-11-13T11:00:00;20.00;;;9.80;;
47539;SDS011;33280;52.152;21.052;2022-11-13T11:02:27;20.53;;;9.80;;
47539;SDS011;33280;52.152;21.052;2022-11-13T11:05:03;18.37;;;9.87;;
47539;SDS011;33280;52.152;21.052;2022-11-13T11:07:33;19.97;;;10.13;;
47539;SDS011;33280;52.152;21.052;2022-11-13T11:10:41;20.40;;;9.80;;
47539;SDS011;33280;52.152;21.052;2022-11-13T11:13:11;22.93;;;10.70;;
47539;SDS011;33280;52.152;21.052;2022-11-13T11:15:58;21.27;;;10.33;;
47539;SDS011;33280;52.152;21.052;2022-11-13T11:18:31;24.13;;;11.17;;
47539;SDS011;33280;52.152;21.052;2022-11-13T11:21:08;23.57;;;11.00;;
47539;SDS011;33280;52.152;21.052;2022-11-13T11:23:42;22.63;;;9.97;;
47539;SDS011;33280;52.152;21.052;2022-11-13T11:26:32;18.53;;;9.43;;
47539;SDS011;33280;52.152;21.052;2022-11-13T11:32:10;20.00;;;9.83;;
47539;SDS011;33280;52.152;21.052;2022-11-13T11:34:42;21.67;;;10.13;;
47539;SDS011;33280;52.152;21.052;2022-11-13T11:37:13;22.27;;;9.60;;
47539;SDS011;33280;52.152;21.052;2022-11-13T11:39:47;22.20;;;9.87;;
47539;SDS011;33280;52.152;21.052;2022-11-13T11:42:21;18.93;;;9.63;;
47539;SDS011;33280;52.152;21.052;2022-11-13T11:47:21;19.10;;;9.50;;
47539;SDS011;33280;52.152;21.052;2022-11-13T11:49:48;18.00;;;9.67;;
47539;SDS011;33280;52.152;21.052;2022-11-13T11:55:05;19.93;;;9.77;;
47539;SDS011;33280;52.152;21.052;2022-11-13T11:57:57;21.10;;;10.20;;
47539;SDS011;33280;52.152;21.052;2022-11-13T12:00:46;19.77;;;10.17;;
47539;SDS011;33280;52.152;21.052;2022-11-13T12:06:12;22.77;;;11.33;;
47539;SDS011;33280;52.152;21.052;2022-11-13T12:09:06;21.97;;;9.77;;
47539;SDS011;33280;52.152;21.052;2022-11-13T12:17:32;23.03;;;11.37;;
47539;SDS011;33280;52.152;21.052;2022-11-13T12:23:07;20.30;;;10.23;;
47539;SDS011;33280;52.152;21.052;2022-11-13T12:25:54;22.40;;;10.40;;
47539;SDS011;33280;52.152;21.052;2022-11-13T12:34:43;22.80;;;11.03;;
47539;SDS011;33280;52.152;21.052;2022-11-13T12:37:21;22.27;;;11.20;;
47539;SDS011;33280;52.152;21.052;2022-11-13T12:40:18;23.83;;;11.17;;
47539;SDS011;33280;52.152;21.052;2022-11-13T12:42:53;22.57;;;11.43;;
47539;SDS011;33280;52.152;21.052;2022-11-13T12:48:09;24.90;;;11.60;;
47539;SDS011;33280;52.152;21.052;2022-11-13T12:50:54;23.47;;;12.00;;
47539;SDS011;33280;52.152;21.052;2022-11-13T12:53:26;28.53;;;11.97;;
47539;SDS011;33280;52.152;21.052;2022-11-13T12:55:57;22.40;;;11.73;;
47539;SDS011;33280;52.152;21.052;2022-11-13T12:58:28;23.90;;;11.77;;
47539;SDS011;33280;52.152;21.052;2022-11-13T13:12:06;24.93;;;11.87;;
47539;SDS011;33280;52.152;21.052;2022-11-13T13:18:03;21.33;;;11.20;;
47539;SDS011;33280;52.152;21.052;2022-11-13T13:20:38;22.23;;;11.27;;
47539;SDS011;33280;52.152;21.052;2022-11-13T13:23:11;21.63;;;10.80;;
47539;SDS011;33280;52.152;21.052;2022-11-13T13:25:39;22.20;;;11.10;;
47539;SDS011;33280;52.152;21.052;2022-11-13T13:28:20;22.53;;;10.93;;
47539;SDS011;33280;52.152;21.052;2022-11-13T13:30:53;21.73;;;11.23;;
47539;SDS011;33280;52.152;21.052;2022-11-13T13:33:53;20.80;;;10.67;;
47539;SDS011;33280;52.152;21.052;2022-11-13T13:36:44;20.17;;;10.63;;
47539;SDS011;33280;52.152;21.052;2022-11-13T13:48:41;21.27;;;11.63;;
47539;SDS011;33280;52.152;21.052;2022-11-13T13:53:50;24.87;;;12.87;;
47539;SDS011;33280;52.152;21.052;2022-11-13T13:56:17;23.00;;;11.57;;
47539;SDS011;33280;52.152;21.052;2022-11-13T13:58:45;24.33;;;12.03;;
47539;SDS011;33280;52.152;21.052;2022-11-13T14:01:23;26.00;;;11.07;;
47539;SDS011;33280;52.152;21.052;2022-11-13T14:04:32;23.87;;;11.83;;
47539;SDS011;33280;52.152;21.052;2022-11-13T14:06:51;22.33;;;12.00;;
47539;SDS011;33280;52.152;21.052;2022-11-13T14:09:20;24.37;;;11.90;;
47539;SDS011;33280;52.152;21.052;2022-11-13T14:12:00;22.43;;;11.47;;
47539;SDS011;33280;52.152;21.052;2022-11-13T14:14:49;26.77;;;12.60;;
47539;SDS011;33280;52.152;21.052;2022-11-13T14:17:21;23.63;;;11.50;;
47539;SDS011;33280;52.152;21.052;2022-11-13T14:19:50;23.10;;;12.00;;
47539;SDS011;33280;52.152;21.052;2022-11-13T14:22:18;25.90;;;12.50;;
47539;SDS011;33280;52.152;21.052;2022-11-13T14:24:49;29.03;;;12.50;;
47539;SDS011;33280;52.152;21.052;2022-11-13T14:27:22;25.80;;;12.70;;
47539;SDS011;33280;52.152;21.052;2022-11-13T14:29:52;25.87;;;12.17;;
47539;SDS011;33280;52.152;21.052;2022-11-13T14:32:32;25.63;;;12.87;;
47539;SDS011;33280;52.152;21.052;2022-11-13T14:35:22;26.43;;;12.23;;
47539;SDS011;33280;52.152;21.052;2022-11-13T14:37:51;27.70;;;13.10;;
47539;SDS011;33280;52.152;21.052;2022-11-13T14:40:22;27.43;;;13.30;;
47539;SDS011;33280;52.152;21.052;2022-11-13T14:42:54;26.67;;;13.07;;
47539;SDS011;33280;52.152;21.052;2022-11-13T14:45:29;23.80;;;12.13;;
47539;SDS011;33280;52.152;21.052;2022-11-13T14:47:58;29.73;;;13.07;;
47539;SDS011;33280;52.152;21.052;2022-11-13T14:50:29;24.63;;;12.87;;
47539;SDS011;33280;52.152;21.052;2022-11-13T14:53:08;25.67;;;11.97;;
47539;SDS011;33280;52.152;21.052;2022-11-13T14:55:37;24.83;;;12.60;;
47539;SDS011;33280;52.152;21.052;2022-11-13T14:58:25;24.20;;;11.73;;
47539;SDS011;33280;52.152;21.052;2022-11-13T15:00:58;23.93;;;12.20;;
47539;SDS011;33280;52.152;21.052;2022-11-13T15:03:37;23.73;;;11.93;;
47539;SDS011;33280;52.152;21.052;2022-11-13T15:06:07;25.07;;;12.47;;
47539;SDS011;33280;52.152;21.052;2022-11-13T15:08:43;28.30;;;13.10;;
47539;SDS011;33280;52.152;21.052;2022-11-13T15:11:11;28.10;;;12.90;;
47539;SDS011;33280;52.152;21.052;2022-11-13T15:13:44;23.77;;;13.03;;
47539;SDS011;33280;52.152;21.052;2022-11-13T15:16:15;26.20;;;12.43;;
47539;SDS011;33280;52.152;21.052;2022-11-13T15:18:45;27.27;;;12.57;;
47539;SDS011;33280;52.152;21.052;2022-11-13T15:21:17;25.33;;;12.67;;
47539;SDS011;33280;52.152;21.052;2022-11-13T15:23:44;27.73;;;13.27;;
47539;SDS011;33280;52.152;21.052;2022-11-13T15:26:11;28.37;;;11.97;;
47539;SDS011;33280;52.152;21.052;2022-11-13T15:28:38;26.27;;;12.87;;
47539;SDS011;33280;52.152;21.052;2022-11-13T15:31:14;25.13;;;12.30;;
47539;SDS011;33280;52.152;21.052;2022-11-13T15:33:45;25.70;;;12.80;;
47539;SDS011;33280;52.152;21.052;2022-11-13T15:36:13;25.03;;;12.53;;
47539;SDS011;33280;52.152;21.052;2022-11-13T15:38:40;26.67;;;12.73;;
47539;SDS011;33280;52.152;21.052;2022-11-13T15:41:11;26.50;;;12.23;;
47539;SDS011;33280;52.152;21.052;2022-11-13T15:43:46;28.97;;;13.43;;
47539;SDS011;33280;52.152;21.052;2022-11-13T15:46:16;27.80;;;13.50;;
47539;SDS011;33280;52.152;21.052;2022-11-13T15:48:44;27.70;;;13.13;;
47539;SDS011;33280;52.152;21.052;2022-11-13T15:56:45;30.77;;;13.67;;
47539;SDS011;33280;52.152;21.052;2022-11-13T15:59:13;29.67;;;14.10;;
47539;SDS011;33280;52.152;21.052;2022-11-13T16:01:40;29.87;;;15.47;;